Latest Weather Observations for Cerberus

IDV60901

Issued at 10:01 pm EST Thursday 30 July 2015 (issued every 10 minutes, with the page automatically refreshed every 10 minutes)

About weather observations | Map of Melbourne area stations | Latest observations for Melbourne area | Other Formats
Station Details ID: 086361 Name: CERBERUS Lat: -38.36 Lon: 145.18 Height: 12.69 m
Data from the previous 72 hours. | See also: Recent months at Cerberus
Date/Time
EST
Tmp

°C
App
Tmp
°C
Dew
Point
°C
Rel
Hum
%
Delta-T

°C
Wind Press
QNH
hPa
Press
MSL
hPa
Rain
since
9 am
mm
Dir
 
Spd
km/h
Gust
km/h
Spd
kts
Gust
kts
30/10:00pm 9.4 5.0 6.5 82 1.3 WNW 19 28 10 15 1016.5 1016.5 4.0
30/09:30pm 9.6 5.4 7.4 86 1.0 WNW 19 28 10 15 1015.9 1015.9 4.0
30/09:00pm 9.2 2.9 7.3 88 0.9 NW 30 48 16 26 1015.5 1015.5 3.8
30/08:30pm 9.2 2.8 6.8 85 1.1 NNW 30 56 16 30 1014.3 1014.3 3.0
30/08:00pm 9.2 2.3 6.5 83 1.3 NNW 32 50 17 27 1013.8 1013.8 2.0
30/07:31pm 10.0 3.7 5.6 74 2.0 NNW 28 54 15 29 1012.7 1012.8 1.2
30/07:30pm 9.8 3.9 5.6 75 1.9 NNW 26 54 14 29 1013.0 1013.1 1.2
30/07:02pm 9.7 3.4 5.7 76 1.8 NNW 28 50 15 27 1012.8 1012.9 0.8
30/07:00pm 9.9 4.0 5.7 75 1.9 NNW 26 50 14 27 1012.8 1012.9 0.8
30/06:32pm 10.2 3.8 5.2 71 2.3 NNW 28 50 15 27 1012.0 1012.1 0.8
30/06:30pm 10.1 4.1 5.1 71 2.3 NNW 26 50 14 27 1012.0 1012.1 0.8
30/06:20pm 10.1 3.7 5.1 71 2.3 NNW 28 50 15 27 1011.9 1012.0 0.8
30/06:00pm 9.7 3.8 5.7 76 1.8 NNW 26 43 14 23 1011.8 1011.9 0.6
30/05:30pm 10.2 3.4 5.0 70 2.3 NNW 30 57 16 31 1011.3 1011.4 0.0
30/05:00pm 11.6 3.8 3.1 56 3.7 NNW 33 69 18 37 1011.0 1011.1 0.0
30/04:52pm 11.6 4.8 3.1 56 3.7 NNW 28 69 15 37 1010.9 1011.0 0.0
30/04:51pm 11.6 4.8 3.1 56 3.7 NNW 28 50 15 27 1010.9 1011.0 0.0
30/04:30pm 11.4 5.4 3.4 58 3.5 NNW 24 43 13 23 1011.2 1011.3 0.0
30/04:00pm 11.2 5.0 4.2 62 3.1 N 26 48 14 26 1011.6 1011.7 0.0
30/03:58pm 11.2 4.6 4.0 61 3.2 NNW 28 48 15 26 1011.5 1011.6 0.0
30/03:30pm 10.4 4.4 5.2 70 2.4 NNW 26 44 14 24 1011.5 1011.6 0.0
30/03:04pm 10.7 4.2 4.8 67 2.7 NNW 28 48 15 26 1012.7 1012.8 0.0
30/03:00pm 10.9 4.8 4.6 65 2.8 NNW 26 46 14 25 1012.7 1012.8 0.0
30/02:40pm 11.7 5.1 4.0 59 3.4 NNW 28 48 15 26 1012.7 1012.8 0.0
30/02:30pm 11.6 5.4 4.1 60 3.4 NNW 26 46 14 25 1013.3 1013.4 0.0
30/02:07pm 11.9 5.2 3.9 58 3.6 N 28 48 15 26 1013.1 1013.2 0.0
30/02:00pm 11.8 5.9 4.1 59 3.5 N 24 46 13 25 1013.2 1013.3 0.0
30/01:30pm 11.4 4.4 3.9 60 3.3 NNW 30 63 16 34 1013.8 1013.8 0.0
30/01:00pm 12.4 4.7 3.6 55 3.9 NNW 33 61 18 33 1014.2 1014.2 0.0
30/12:30pm 12.3 5.2 3.3 54 4.0 NNW 30 54 16 29 1014.8 1014.8 0.0
30/12:00pm 11.7 4.6 3.5 57 3.6 N 30 52 16 28 1016.0 1016.0 0.0
30/11:30am 11.6 4.5 3.4 57 3.6 N 30 52 16 28 1016.8 1016.8 0.0
30/11:05am 11.7 4.0 3.2 56 3.7 NNW 33 54 18 29 1017.8 1017.8 0.0
30/11:00am 11.6 3.5 3.1 56 3.7 NNW 35 52 19 28 1017.7 1017.7 0.0
30/10:30am 11.2 2.3 3.3 58 3.5 NNW 39 69 21 37 1017.8 1017.8 0.0
30/10:05am 11.2 4.5 3.7 60 3.3 NNW 28 54 15 29 1017.9 1017.9 0.0
30/10:00am 10.7 4.7 3.5 61 3.2 NNW 24 44 13 24 1017.8 1017.8 0.0
30/09:47am 10.7 3.9 3.3 60 3.2 NNW 28 50 15 27 1018.1 1018.1 0.0
30/09:30am 10.7 4.7 3.5 61 3.2 N 24 56 13 30 1018.6 1018.6 0.0
30/09:00am 10.2 5.2 3.5 63 2.9 N 19 44 10 24 1019.4 1019.4 0.0
30/08:30am 9.7 6.2 3.4 65 2.7 N 11 24 6 13 1019.8 1019.8 0.0
30/08:00am 9.1 4.4 3.3 67 2.5 N 17 30 9 16 1020.0 1020.0 0.0
30/07:30am 8.2 5.0 3.1 70 2.2 NNE 9 17 5 9 1020.3 1020.3 0.0
30/07:00am 8.7 4.4 3.3 69 2.3 N 15 22 8 12 1020.5 1020.5 0.0
30/06:30am 8.5 4.2 3.1 69 2.3 N 15 26 8 14 1020.8 1020.8 0.0
30/06:00am 8.1 4.5 3.2 71 2.1 N 11 19 6 10 1021.1 1021.1 0.0
30/05:30am 7.9 4.7 3.0 71 2.1 N 9 17 5 9 1021.3 1021.3 0.0
30/05:00am 8.0 4.4 3.1 71 2.1 N 11 19 6 10 1021.6 1021.6 0.0
30/04:30am 8.3 4.4 3.2 70 2.2 N 13 20 7 11 1021.8 1021.8 0.0
30/04:00am 8.4 4.1 3.1 69 2.2 N 15 24 8 13 1022.2 1022.2 0.0
30/03:30am 8.6 4.7 3.2 69 2.3 N 13 28 7 15 1022.5 1022.5 0.0
30/03:00am 8.5 4.5 3.1 69 2.3 N 13 22 7 12 1023.1 1023.1 0.0
30/02:30am 8.5 4.9 3.1 69 2.3 N 11 26 6 14 1023.7 1023.7 0.0
30/02:00am 8.6 5.1 3.4 70 2.2 N 11 20 6 11 1023.9 1023.9 0.0
30/01:30am 8.4 5.7 3.7 72 2.0 N 7 17 4 9 1024.7 1024.7 0.0
30/01:00am 8.4 5.7 3.8 73 2.0 N 7 17 4 9 1024.9 1024.9 0.0
30/12:30am 8.8 5.8 4.0 72 2.1 N 9 19 5 10 1025.2 1025.2 0.0
30/12:00am 9.2 6.2 4.2 71 2.2 N 9 15 5 8 1026.0 1026.0 0.0
 
Date/Time
EST
Tmp

°C
App
Tmp
°C
Dew
Point
°C
Rel
Hum
%
Delta-T

°C
Wind Press
QNH
hPa
Press
MSL
hPa
Rain
since
9 am
mm
Dir
 
Spd
km/h
Gust
km/h
Spd
kts
Gust
kts
29/11:30pm 9.2 5.8 4.2 71 2.2 N 11 19 6 10 1026.4 1026.4 0.0
29/11:00pm 9.2 5.9 4.4 72 2.1 N 11 19 6 10 1026.5 1026.5 0.0
29/10:30pm 9.3 6.3 4.3 71 2.2 N 9 17 5 9 1026.7 1026.7 0.0
29/10:00pm 9.8 6.9 4.6 70 2.3 N 9 20 5 11 1027.0 1027.0 0.0
29/09:30pm 10.2 6.9 4.6 68 2.5 N 11 20 6 11 1027.2 1027.2 0.0
29/09:00pm 10.1 7.1 4.3 67 2.6 N 9 19 5 10 1027.4 1027.4 0.0
29/08:30pm 10.1 7.1 4.0 66 2.7 N 9 15 5 8 1027.5 1027.5 0.0
29/08:00pm 10.2 7.5 3.9 65 2.8 N 7 13 4 7 1027.3 1027.3 0.0
29/07:30pm 10.4 7.7 3.7 63 2.9 N 7 15 4 8 1027.6 1027.6 0.0
29/07:00pm 10.4 7.3 3.4 62 3.0 N 9 13 5 7 1027.6 1027.6 0.0
29/06:30pm 10.8 7.7 3.4 60 3.2 N 9 17 5 9 1027.6 1027.6 0.0
29/06:00pm 10.9 8.2 3.5 60 3.2 N 7 17 4 9 1027.7 1027.7 0.0
29/05:30pm 11.0 8.3 3.5 60 3.3 NNW 7 13 4 7 1027.7 1027.7 0.0
29/05:00pm 11.1 8.6 3.9 61 3.2 NNW 6 9 3 5 1027.7 1027.7 0.0
29/04:30pm 11.6 8.6 3.9 59 3.4 N 9 19 5 10 1027.7 1027.7 0.0
29/04:00pm 11.9 8.5 4.2 59 3.4 NNW 11 19 6 10 1028.0 1028.0 0.0
29/03:30pm 12.8 10.4 5.2 60 3.5 NW 7 13 4 7 1028.3 1028.3 0.0
29/03:00pm 12.0 9.5 5.0 62 3.2 NW 7 15 4 8 1028.7 1028.7 0.0
29/02:30pm 12.3 9.7 4.3 58 3.6 NNW 7 13 4 7 1028.8 1028.8 0.0
29/02:00pm 12.4 8.6 4.1 57 3.7 WNW 13 24 7 13 1029.3 1029.3 0.0
29/01:30pm 13.2 9.4 4.1 54 4.1 NW 13 22 7 12 1029.6 1029.6 0.0
29/01:00pm 13.0 9.2 3.9 54 4.1 WNW 13 26 7 14 1029.9 1029.9 0.0
29/12:30pm 12.4 8.5 3.6 55 3.9 NW 13 20 7 11 1030.6 1030.6 0.0
29/12:00pm 13.0 9.3 4.7 57 3.8 NW 13 22 7 12 1031.4 1031.4 0.0
29/11:30am 13.2 10.4 5.1 58 3.8 NW 9 17 5 9 1031.7 1031.7 0.0
29/11:00am 12.1 9.0 5.7 65 3.0 NW 11 19 6 10 1032.2 1032.2 0.0
29/10:30am 12.1 9.4 5.7 65 3.0 NW 9 19 5 10 1032.5 1032.5 0.0
29/10:00am 11.4 9.4 7.1 75 2.0 NNW 7 15 4 8 1032.6 1032.6 0.0
29/09:30am 10.8 8.9 7.5 80 1.6 NNW 7 11 4 6 1032.7 1032.7 0.0
29/09:00am 9.7 7.8 7.5 86 1.0 NW 7 13 4 7 1032.7 1032.7 0.0
29/08:30am 7.2 5.2 6.3 94 0.4 NNW 6 7 3 4 1033.0 1033.0 0.0
29/08:00am 6.7 4.6 5.7 93 0.4 NNW 6 6 3 3 1032.8 1032.8 0.0
29/07:30am 6.3 4.1 5.3 93 0.4 NNW 6 6 3 3 1032.5 1032.5 0.0
29/07:00am 7.0 5.3 5.8 92 0.5 NNW 4 6 2 3 1032.5 1032.5 0.0
29/06:30am 7.3 5.6 5.9 91 0.6 NNW 4 6 2 3 1032.5 1032.5 0.0
29/06:00am 7.8 6.2 6.3 90 0.7 NNW 4 6 2 3 1032.4 1032.4 0.0
29/05:30am 8.6 7.2 7.1 90 0.7 NNW 4 7 2 4 1032.2 1032.2 0.0
29/05:00am 8.9 7.5 7.4 90 0.7 NW 4 7 2 4 1032.2 1032.2 0.0
29/04:30am 8.9 7.5 7.4 90 0.7 NW 4 6 2 3 1032.4 1032.4 0.0
29/04:00am 9.0 7.7 7.5 90 0.7 NW 4 7 2 4 1032.2 1032.2 0.0
29/03:30am 9.3 7.0 7.6 89 0.8 NW 9 15 5 8 1032.4 1032.4 0.0
29/03:00am 9.1 6.8 7.5 90 0.8 NW 9 13 5 7 1032.5 1032.5 0.0
29/02:30am 9.2 6.2 7.8 91 0.7 NW 13 19 7 10 1032.9 1032.9 0.0
29/02:00am 8.6 6.9 7.5 93 0.5 NW 6 13 3 7 1032.8 1032.8 0.0
29/01:30am 8.3 6.9 7.2 93 0.5 NW 4 6 2 3 1032.5 1032.5 0.0
29/01:00am 8.4 7.1 7.5 94 0.4 NW 4 6 2 3 1032.7 1032.7 0.0
29/12:30am 8.0 6.6 7.1 94 0.4 NW 4 6 2 3 1033.1 1033.1 0.0
29/12:00am 7.5 6.0 6.6 94 0.4 NW 4 6 2 3 1033.3 1033.3 0.0
 
Date/Time
EST
Tmp

°C
App
Tmp
°C
Dew
Point
°C
Rel
Hum
%
Delta-T

°C
Wind Press
QNH
hPa
Press
MSL
hPa
Rain
since
9 am
mm
Dir
 
Spd
km/h
Gust
km/h
Spd
kts
Gust
kts
28/11:30pm 6.6 5.2 5.6 93 0.4 NW 2 4 1 2 1033.4 1033.4 0.0
28/11:00pm 7.6 6.8 6.5 93 0.5 CALM 0 0 0 0 1033.5 1033.5 0.0
28/10:30pm 7.9 6.8 6.8 93 0.5 NW 2 2 1 1 1033.7 1033.7 0.0
28/10:00pm 7.6 6.8 6.5 93 0.5 CALM 0 0 0 0 1033.8 1033.8 0.0
28/09:30pm 7.8 7.0 6.7 93 0.5 CALM 0 0 0 0 1033.8 1033.8 0.0
28/09:00pm 7.8 7.0 6.7 93 0.5 CALM 0 2 0 1 1033.9 1033.9 0.0
28/08:30pm 7.0 6.1 5.9 93 0.5 CALM 0 6 0 3 1034.0 1034.0 0.0
28/08:00pm 6.7 5.3 5.5 92 0.5 NW 2 4 1 2 1033.7 1033.7 0.0
28/07:30pm 6.6 5.5 5.2 91 0.6 CALM 0 0 0 0 1033.8 1033.8 0.0
28/07:00pm 7.1 5.4 5.9 92 0.5 NW 4 4 2 2 1033.8 1033.8 0.0
28/06:30pm 7.2 5.4 5.5 89 0.8 WNW 4 4 2 2 1033.7 1033.7 0.0
28/06:00pm 8.7 7.1 6.2 84 1.1 WNW 4 4 2 2 1033.4 1033.4 0.0
28/05:30pm 9.4 7.8 6.3 81 1.4 WNW 4 4 2 2 1033.3 1033.3 0.0
28/05:00pm 11.1 9.0 6.8 75 2.0 WNW 7 11 4 6 1033.1 1033.1 0.0
28/04:30pm 11.6 8.8 7.1 74 2.2 W 11 17 6 9 1033.1 1033.1 0.0
28/04:00pm 11.9 9.2 7.2 73 2.2 W 11 17 6 9 1033.1 1033.1 0.0
28/03:30pm 12.0 8.9 7.3 73 2.3 W 13 19 7 10 1033.1 1033.1 0.0
28/03:00pm 12.3 9.2 7.2 71 2.4 WSW 13 19 7 10 1033.1 1033.1 0.0
28/02:30pm 12.4 8.6 7.7 73 2.3 W 17 24 9 13 1032.9 1032.9 0.0
28/02:00pm 11.9 8.1 7.4 74 2.2 W 17 24 9 13 1033.1 1033.1 0.0
28/01:30pm 11.6 8.2 7.7 77 1.9 W 15 28 8 15 1033.3 1033.3 0.0
28/01:00pm 11.4 7.9 7.3 76 1.9 W 15 20 8 11 1033.6 1033.6 0.0
28/12:30pm 11.7 8.3 7.8 77 1.9 WNW 15 20 8 11 1033.8 1033.8 0.0
28/12:00pm 11.7 8.8 8.0 78 1.8 WNW 13 19 7 10 1034.1 1034.1 0.0
28/11:30am 10.7 7.7 7.6 81 1.5 WNW 13 19 7 10 1034.6 1034.6 0.0
28/11:00am 10.0 6.1 7.3 83 1.3 NW 17 22 9 12 1034.8 1034.8 0.0
28/10:30am 10.1 6.3 7.7 85 1.2 NW 17 26 9 14 1035.0 1035.0 0.0
28/10:00am 9.3 6.2 7.3 87 0.9 NW 13 19 7 10 1034.5 1034.5 0.0
28/09:30am 8.8 5.3 7.1 89 0.8 WNW 15 20 8 11 1034.6 1034.6 0.0
28/09:00am 8.7 6.0 7.3 91 0.7 WNW 11 17 6 9 1034.3 1034.3 5.8
28/08:30am 8.8 6.6 7.7 93 0.5 NW 9 15 5 8 1033.9 1033.9 5.6
28/08:00am 8.5 5.4 7.3 92 0.6 WNW 13 24 7 13 1033.6 1033.6 5.6
28/07:30am 8.4 5.3 7.3 93 0.5 NW 13 19 7 10 1033.1 1033.1 5.6
28/07:00am 8.0 5.6 6.9 93 0.5 NW 9 13 5 7 1032.7 1032.7 5.6
28/06:30am 8.5 5.8 7.3 92 0.6 WNW 11 19 6 10 1032.4 1032.4 5.6
28/06:00am 8.5 6.5 7.3 92 0.6 WNW 7 13 4 7 1032.0 1032.0 5.6
28/05:30am 8.6 5.9 7.4 92 0.6 WNW 11 17 6 9 1031.7 1031.7 5.6
28/05:00am 8.6 5.9 7.4 92 0.6 WNW 11 15 6 8 1031.4 1031.4 5.6
28/04:30am 8.7 6.0 7.5 92 0.6 WNW 11 15 6 8 1031.2 1031.2 5.0
28/04:00am 8.4 5.7 7.2 92 0.6 WNW 11 19 6 10 1031.0 1031.0 4.6
28/03:30am 8.7 6.0 7.3 91 0.7 WNW 11 17 6 9 1031.0 1031.0 4.4
28/03:00am 8.7 5.6 7.3 91 0.7 WNW 13 19 7 10 1030.8 1030.8 4.4
28/02:30am 8.8 5.7 7.4 91 0.7 WNW 13 20 7 11 1030.8 1030.8 4.2
28/02:00am 8.6 5.1 7.1 90 0.7 WNW 15 24 8 13 1030.5 1030.5 4.2
28/01:30am 8.4 5.2 6.9 90 0.7 WNW 13 19 7 10 1030.2 1030.2 4.2
28/01:00am 8.5 5.0 7.0 90 0.7 WNW 15 22 8 12 1030.2 1030.2 4.2
28/12:30am 8.5 4.9 6.8 89 0.8 WNW 15 24 8 13 1030.2 1030.2 4.0
28/12:00am 8.7 5.1 6.8 88 0.9 WNW 15 24 8 13 1030.1 1030.1 4.0
 
Date/Time
EST
Tmp

°C
App
Tmp
°C
Dew
Point
°C
Rel
Hum
%
Delta-T

°C
Wind Press
QNH
hPa
Press
MSL
hPa
Rain
since
9 am
mm
Dir
 
Spd
km/h
Gust
km/h
Spd
kts
Gust
kts
27/11:30pm 8.9 5.0 6.9 87 0.9 WNW 17 26 9 14 1030.1 1030.1 4.0
27/11:00pm 8.7 4.7 6.5 86 1.0 NW 17 26 9 14 1030.2 1030.2 4.0
27/10:30pm 8.6 4.9 6.4 86 1.0 NW 15 20 8 11 1030.2 1030.2 4.0

Latest Capital City Observations: Canberra | Sydney | Melbourne | Brisbane | Adelaide | Perth | Hobart | Darwin

Other Formats:

Comma delimited format used in spreadsheet applications
http://www.bom.gov.au/fwo/IDV60901/IDV60901.94898.axf

JavaScript Object Notation format (JSON) in row-major order
http://www.bom.gov.au/fwo/IDV60901/IDV60901.94898.json